Sun City, Florida
Current Conditions -  °F | °C
As of 2:53 AM on Tuesday 21 Oct 2014 (Local Time) from KSPG Reporting Station
Clear Clear  
Wind Chill: 76°   Ceiling: Unl
Heat Index: 76°   Visibility: 10mi
Dew Point: 64°   Wind: 6mph
Humidity: 67%   Direction: 360°N
Pressure: 29.92"   Gusts: NA
Location:  27.68°N, 82.48°W
Report Text: KSPG 210653Z AUTO 36005KT 10SM CLR 24/18 A2992 RMK AO2 SLP133 T02440178
Loading
Personal Weather Stations






























Interactive Weather Map
Tropical Storm Tracking
New forecast layout! Learn more

10-Day Weather Forecast

Advertisements
Track Severe Weather on mobile